sensor_id;sensor_type;location;lat;lon;timestamp;P1;durP1;ratioP1;P2;durP2;ratioP2
20185;SDS011;10252;48.792;8.582;2023-10-08T00:01:33;4.68;;;2.92;;
20185;SDS011;10252;48.792;8.582;2023-10-08T00:06:34;8.80;;;3.38;;
20185;SDS011;10252;48.792;8.582;2023-10-08T00:11:38;7.45;;;3.67;;
20185;SDS011;10252;48.792;8.582;2023-10-08T00:16:40;7.70;;;3.15;;
20185;SDS011;10252;48.792;8.582;2023-10-08T00:21:42;5.72;;;2.90;;
20185;SDS011;10252;48.792;8.582;2023-10-08T00:26:45;6.00;;;3.55;;
20185;SDS011;10252;48.792;8.582;2023-10-08T00:31:47;6.90;;;4.50;;
20185;SDS011;10252;48.792;8.582;2023-10-08T00:36:50;6.13;;;3.92;;
20185;SDS011;10252;48.792;8.582;2023-10-08T00:41:52;6.68;;;4.32;;
20185;SDS011;10252;48.792;8.582;2023-10-08T00:46:58;6.50;;;4.22;;
20185;SDS011;10252;48.792;8.582;2023-10-08T00:52:11;9.10;;;3.70;;
20185;SDS011;10252;48.792;8.582;2023-10-08T00:57:13;8.93;;;3.85;;
20185;SDS011;10252;48.792;8.582;2023-10-08T01:02:21;4.93;;;3.25;;
20185;SDS011;10252;48.792;8.582;2023-10-08T01:07:46;6.15;;;3.13;;
20185;SDS011;10252;48.792;8.582;2023-10-08T01:12:51;10.18;;;3.05;;
20185;SDS011;10252;48.792;8.582;2023-10-08T01:18:04;6.35;;;2.55;;
20185;SDS011;10252;48.792;8.582;2023-10-08T01:23:15;4.80;;;2.28;;
20185;SDS011;10252;48.792;8.582;2023-10-08T01:28:21;6.50;;;2.53;;
20185;SDS011;10252;48.792;8.582;2023-10-08T01:33:31;7.10;;;2.75;;
20185;SDS011;10252;48.792;8.582;2023-10-08T01:38:39;7.20;;;2.92;;
20185;SDS011;10252;48.792;8.582;2023-10-08T01:43:43;7.95;;;3.15;;
20185;SDS011;10252;48.792;8.582;2023-10-08T01:48:45;5.88;;;3.90;;
20185;SDS011;10252;48.792;8.582;2023-10-08T01:53:51;8.13;;;3.40;;
20185;SDS011;10252;48.792;8.582;2023-10-08T01:58:54;5.43;;;3.42;;
20185;SDS011;10252;48.792;8.582;2023-10-08T02:03:56;5.10;;;2.78;;
20185;SDS011;10252;48.792;8.582;2023-10-08T02:08:57;9.18;;;2.92;;
20185;SDS011;10252;48.792;8.582;2023-10-08T02:13:59;5.82;;;2.97;;
20185;SDS011;10252;48.792;8.582;2023-10-08T02:19:02;8.05;;;3.00;;
20185;SDS011;10252;48.792;8.582;2023-10-08T02:24:05;7.72;;;2.50;;
20185;SDS011;10252;48.792;8.582;2023-10-08T02:29:12;5.82;;;2.53;;
20185;SDS011;10252;48.792;8.582;2023-10-08T02:34:13;3.95;;;2.30;;
20185;SDS011;10252;48.792;8.582;2023-10-08T02:39:15;4.75;;;2.45;;
20185;SDS011;10252;48.792;8.582;2023-10-08T02:44:21;5.50;;;2.67;;
20185;SDS011;10252;48.792;8.582;2023-10-08T02:49:23;4.95;;;2.95;;
20185;SDS011;10252;48.792;8.582;2023-10-08T02:54:25;6.15;;;2.65;;
20185;SDS011;10252;48.792;8.582;2023-10-08T02:59:36;4.90;;;2.45;;
20185;SDS011;10252;48.792;8.582;2023-10-08T03:04:43;9.73;;;2.88;;
20185;SDS011;10252;48.792;8.582;2023-10-08T03:09:45;5.32;;;2.50;;
20185;SDS011;10252;48.792;8.582;2023-10-08T03:14:49;7.85;;;2.28;;
20185;SDS011;10252;48.792;8.582;2023-10-08T03:20:17;7.63;;;2.50;;
20185;SDS011;10252;48.792;8.582;2023-10-08T03:25:30;3.95;;;2.35;;
20185;SDS011;10252;48.792;8.582;2023-10-08T03:30:34;6.32;;;2.58;;
20185;SDS011;10252;48.792;8.582;2023-10-08T03:35:51;6.20;;;3.05;;
20185;SDS011;10252;48.792;8.582;2023-10-08T03:40:53;3.70;;;2.10;;
20185;SDS011;10252;48.792;8.582;2023-10-08T03:46:00;4.32;;;2.08;;
20185;SDS011;10252;48.792;8.582;2023-10-08T03:51:06;5.63;;;3.15;;
20185;SDS011;10252;48.792;8.582;2023-10-08T03:56:11;4.47;;;2.88;;
20185;SDS011;10252;48.792;8.582;2023-10-08T04:01:14;6.38;;;2.63;;
20185;SDS011;10252;48.792;8.582;2023-10-08T04:06:19;15.82;;;2.83;;
20185;SDS011;10252;48.792;8.582;2023-10-08T04:11:30;5.72;;;2.22;;
20185;SDS011;10252;48.792;8.582;2023-10-08T04:16:35;5.95;;;2.88;;
20185;SDS011;10252;48.792;8.582;2023-10-08T04:21:38;5.63;;;2.28;;
20185;SDS011;10252;48.792;8.582;2023-10-08T04:26:43;5.57;;;2.97;;
20185;SDS011;10252;48.792;8.582;2023-10-08T04:31:45;8.30;;;3.00;;
20185;SDS011;10252;48.792;8.582;2023-10-08T04:37:01;5.00;;;2.45;;
20185;SDS011;10252;48.792;8.582;2023-10-08T04:42:04;5.57;;;2.30;;
20185;SDS011;10252;48.792;8.582;2023-10-08T04:47:10;4.82;;;2.45;;
20185;SDS011;10252;48.792;8.582;2023-10-08T04:52:31;5.65;;;2.30;;
20185;SDS011;10252;48.792;8.582;2023-10-08T04:57:34;9.18;;;2.78;;
20185;SDS011;10252;48.792;8.582;2023-10-08T05:02:35;8.98;;;2.90;;
20185;SDS011;10252;48.792;8.582;2023-10-08T05:07:49;5.88;;;2.85;;
20185;SDS011;10252;48.792;8.582;2023-10-08T05:12:54;5.63;;;3.03;;
20185;SDS011;10252;48.792;8.582;2023-10-08T05:18:04;6.55;;;3.30;;
20185;SDS011;10252;48.792;8.582;2023-10-08T05:23:12;6.80;;;2.95;;
20185;SDS011;10252;48.792;8.582;2023-10-08T05:28:29;6.20;;;3.08;;
20185;SDS011;10252;48.792;8.582;2023-10-08T05:33:31;4.70;;;2.80;;
20185;SDS011;10252;48.792;8.582;2023-10-08T05:38:51;6.88;;;3.15;;
20185;SDS011;10252;48.792;8.582;2023-10-08T05:44:07;6.32;;;2.60;;
20185;SDS011;10252;48.792;8.582;2023-10-08T05:49:21;5.03;;;2.60;;
20185;SDS011;10252;48.792;8.582;2023-10-08T05:54:32;5.43;;;2.80;;
20185;SDS011;10252;48.792;8.582;2023-10-08T05:59:47;10.27;;;4.18;;
20185;SDS011;10252;48.792;8.582;2023-10-08T06:04:56;6.65;;;3.88;;
20185;SDS011;10252;48.792;8.582;2023-10-08T06:10:25;6.22;;;3.13;;
20185;SDS011;10252;48.792;8.582;2023-10-08T06:15:36;6.50;;;3.33;;
20185;SDS011;10252;48.792;8.582;2023-10-08T06:20:57;7.20;;;3.30;;
20185;SDS011;10252;48.792;8.582;2023-10-08T06:26:07;8.98;;;3.20;;
20185;SDS011;10252;48.792;8.582;2023-10-08T06:31:11;4.45;;;2.83;;
20185;SDS011;10252;48.792;8.582;2023-10-08T06:36:16;7.03;;;3.90;;
20185;SDS011;10252;48.792;8.582;2023-10-08T06:41:23;8.52;;;3.88;;
20185;SDS011;10252;48.792;8.582;2023-10-08T06:46:33;6.38;;;3.22;;
20185;SDS011;10252;48.792;8.582;2023-10-08T06:51:35;7.80;;;3.55;;
20185;SDS011;10252;48.792;8.582;2023-10-08T06:56:37;6.43;;;4.05;;
20185;SDS011;10252;48.792;8.582;2023-10-08T07:01:39;6.38;;;3.13;;
20185;SDS011;10252;48.792;8.582;2023-10-08T07:06:46;10.63;;;3.30;;
20185;SDS011;10252;48.792;8.582;2023-10-08T07:11:49;6.72;;;3.70;;
20185;SDS011;10252;48.792;8.582;2023-10-08T07:16:55;6.35;;;3.22;;
20185;SDS011;10252;48.792;8.582;2023-10-08T07:22:00;8.80;;;4.18;;
20185;SDS011;10252;48.792;8.582;2023-10-08T07:27:03;9.95;;;3.97;;
20185;SDS011;10252;48.792;8.582;2023-10-08T07:32:09;5.95;;;3.58;;
20185;SDS011;10252;48.792;8.582;2023-10-08T07:37:11;6.68;;;4.07;;
20185;SDS011;10252;48.792;8.582;2023-10-08T07:42:14;8.25;;;3.70;;
20185;SDS011;10252;48.792;8.582;2023-10-08T07:47:16;7.22;;;3.80;;
20185;SDS011;10252;48.792;8.582;2023-10-08T07:52:21;6.50;;;3.30;;
20185;SDS011;10252;48.792;8.582;2023-10-08T07:57:23;6.82;;;3.40;;
20185;SDS011;10252;48.792;8.582;2023-10-08T08:02:27;8.60;;;4.07;;
20185;SDS011;10252;48.792;8.582;2023-10-08T08:07:29;5.93;;;3.53;;
20185;SDS011;10252;48.792;8.582;2023-10-08T08:12:30;5.55;;;3.38;;
20185;SDS011;10252;48.792;8.582;2023-10-08T08:17:33;6.53;;;3.03;;
20185;SDS011;10252;48.792;8.582;2023-10-08T08:22:34;10.85;;;5.57;;
20185;SDS011;10252;48.792;8.582;2023-10-08T08:27:43;7.40;;;4.18;;
20185;SDS011;10252;48.792;8.582;2023-10-08T08:32:47;7.53;;;3.95;;
20185;SDS011;10252;48.792;8.582;2023-10-08T08:37:49;7.10;;;3.55;;
20185;SDS011;10252;48.792;8.582;2023-10-08T08:42:51;7.40;;;3.17;;
20185;SDS011;10252;48.792;8.582;2023-10-08T08:47:53;7.10;;;3.55;;
20185;SDS011;10252;48.792;8.582;2023-10-08T08:52:59;8.25;;;4.03;;
20185;SDS011;10252;48.792;8.582;2023-10-08T08:58:01;8.23;;;3.67;;
20185;SDS011;10252;48.792;8.582;2023-10-08T09:03:05;6.40;;;3.20;;
20185;SDS011;10252;48.792;8.582;2023-10-08T09:08:08;8.85;;;3.83;;
20185;SDS011;10252;48.792;8.582;2023-10-08T09:13:09;9.35;;;3.65;;
20185;SDS011;10252;48.792;8.582;2023-10-08T09:18:11;7.05;;;3.28;;
20185;SDS011;10252;48.792;8.582;2023-10-08T09:23:15;9.95;;;3.67;;
20185;SDS011;10252;48.792;8.582;2023-10-08T09:28:22;5.95;;;2.97;;
20185;SDS011;10252;48.792;8.582;2023-10-08T09:33:26;5.15;;;2.97;;
20185;SDS011;10252;48.792;8.582;2023-10-08T09:38:29;7.47;;;3.40;;
20185;SDS011;10252;48.792;8.582;2023-10-08T09:43:31;7.43;;;3.55;;
20185;SDS011;10252;48.792;8.582;2023-10-08T09:48:36;9.45;;;3.58;;
20185;SDS011;10252;48.792;8.582;2023-10-08T09:58:49;9.93;;;3.45;;
20185;SDS011;10252;48.792;8.582;2023-10-08T10:03:51;8.10;;;3.28;;
20185;SDS011;10252;48.792;8.582;2023-10-08T10:08:55;10.77;;;4.05;;
20185;SDS011;10252;48.792;8.582;2023-10-08T10:14:00;9.55;;;3.55;;
20185;SDS011;10252;48.792;8.582;2023-10-08T10:19:01;12.82;;;4.38;;
20185;SDS011;10252;48.792;8.582;2023-10-08T10:24:04;10.50;;;3.88;;
20185;SDS011;10252;48.792;8.582;2023-10-08T10:34:11;9.52;;;3.95;;
20185;SDS011;10252;48.792;8.582;2023-10-08T10:39:13;8.00;;;3.72;;
20185;SDS011;10252;48.792;8.582;2023-10-08T10:44:17;11.40;;;4.90;;
20185;SDS011;10252;48.792;8.582;2023-10-08T10:49:20;11.32;;;4.30;;
20185;SDS011;10252;48.792;8.582;2023-10-08T10:54:33;14.02;;;4.00;;
20185;SDS011;10252;48.792;8.582;2023-10-08T10:59:37;14.18;;;4.35;;
20185;SDS011;10252;48.792;8.582;2023-10-08T11:04:38;12.38;;;4.13;;
20185;SDS011;10252;48.792;8.582;2023-10-08T11:09:52;11.85;;;4.57;;
20185;SDS011;10252;48.792;8.582;2023-10-08T11:14:55;13.77;;;4.93;;
20185;SDS011;10252;48.792;8.582;2023-10-08T11:19:57;12.10;;;4.20;;
20185;SDS011;10252;48.792;8.582;2023-10-08T11:24:59;12.00;;;3.55;;
20185;SDS011;10252;48.792;8.582;2023-10-08T11:30:05;10.45;;;3.78;;
20185;SDS011;10252;48.792;8.582;2023-10-08T11:35:14;13.30;;;4.40;;
20185;SDS011;10252;48.792;8.582;2023-10-08T11:40:23;13.10;;;4.82;;
20185;SDS011;10252;48.792;8.582;2023-10-08T11:45:44;15.52;;;4.20;;
20185;SDS011;10252;48.792;8.582;2023-10-08T11:50:48;12.23;;;4.35;;
20185;SDS011;10252;48.792;8.582;2023-10-08T11:55:51;9.30;;;4.00;;
20185;SDS011;10252;48.792;8.582;2023-10-08T12:00:57;12.68;;;3.83;;
20185;SDS011;10252;48.792;8.582;2023-10-08T12:06:03;12.80;;;3.92;;
20185;SDS011;10252;48.792;8.582;2023-10-08T12:11:05;9.90;;;4.20;;
20185;SDS011;10252;48.792;8.582;2023-10-08T12:16:12;14.15;;;4.45;;
20185;SDS011;10252;48.792;8.582;2023-10-08T12:21:19;13.00;;;4.40;;
20185;SDS011;10252;48.792;8.582;2023-10-08T12:26:22;12.75;;;4.95;;
20185;SDS011;10252;48.792;8.582;2023-10-08T12:31:24;10.13;;;4.63;;
20185;SDS011;10252;48.792;8.582;2023-10-08T12:36:28;11.77;;;4.20;;
20185;SDS011;10252;48.792;8.582;2023-10-08T12:41:33;16.20;;;4.30;;
20185;SDS011;10252;48.792;8.582;2023-10-08T12:46:38;13.27;;;3.83;;
20185;SDS011;10252;48.792;8.582;2023-10-08T12:51:40;15.00;;;5.13;;
20185;SDS011;10252;48.792;8.582;2023-10-08T12:56:46;12.45;;;4.00;;
20185;SDS011;10252;48.792;8.582;2023-10-08T13:01:49;13.95;;;5.22;;
20185;SDS011;10252;48.792;8.582;2023-10-08T13:06:57;21.10;;;4.72;;
20185;SDS011;10252;48.792;8.582;2023-10-08T13:12:01;12.25;;;4.68;;
20185;SDS011;10252;48.792;8.582;2023-10-08T13:17:02;11.63;;;4.35;;
20185;SDS011;10252;48.792;8.582;2023-10-08T13:22:04;13.07;;;4.75;;
20185;SDS011;10252;48.792;8.582;2023-10-08T13:27:07;13.82;;;5.60;;
20185;SDS011;10252;48.792;8.582;2023-10-08T13:32:08;10.68;;;5.07;;
20185;SDS011;10252;48.792;8.582;2023-10-08T13:37:17;15.55;;;5.32;;
20185;SDS011;10252;48.792;8.582;2023-10-08T13:42:18;10.13;;;4.47;;
20185;SDS011;10252;48.792;8.582;2023-10-08T13:47:21;11.25;;;4.57;;
20185;SDS011;10252;48.792;8.582;2023-10-08T13:52:25;13.07;;;4.70;;
20185;SDS011;10252;48.792;8.582;2023-10-08T13:57:27;15.25;;;5.05;;
20185;SDS011;10252;48.792;8.582;2023-10-08T14:02:30;12.57;;;4.45;;
20185;SDS011;10252;48.792;8.582;2023-10-08T14:07:32;17.80;;;5.75;;
20185;SDS011;10252;48.792;8.582;2023-10-08T14:12:35;14.80;;;4.80;;
20185;SDS011;10252;48.792;8.582;2023-10-08T14:17:38;16.88;;;5.65;;
20185;SDS011;10252;48.792;8.582;2023-10-08T14:22:48;16.52;;;6.30;;
20185;SDS011;10252;48.792;8.582;2023-10-08T14:27:57;20.52;;;5.25;;
20185;SDS011;10252;48.792;8.582;2023-10-08T14:33:04;14.27;;;4.68;;
20185;SDS011;10252;48.792;8.582;2023-10-08T14:38:09;18.60;;;5.93;;
20185;SDS011;10252;48.792;8.582;2023-10-08T14:43:29;12.73;;;5.15;;
20185;SDS011;10252;48.792;8.582;2023-10-08T14:48:34;24.83;;;5.60;;
20185;SDS011;10252;48.792;8.582;2023-10-08T14:53:36;16.17;;;6.05;;
20185;SDS011;10252;48.792;8.582;2023-10-08T14:58:38;24.65;;;5.90;;
20185;SDS011;10252;48.792;8.582;2023-10-08T15:03:41;16.98;;;5.40;;
20185;SDS011;10252;48.792;8.582;2023-10-08T15:08:43;16.33;;;4.82;;
20185;SDS011;10252;48.792;8.582;2023-10-08T15:13:44;14.50;;;4.45;;
20185;SDS011;10252;48.792;8.582;2023-10-08T15:18:46;16.02;;;4.88;;
20185;SDS011;10252;48.792;8.582;2023-10-08T15:23:47;16.92;;;5.15;;
20185;SDS011;10252;48.792;8.582;2023-10-08T15:28:49;14.75;;;4.40;;
20185;SDS011;10252;48.792;8.582;2023-10-08T15:33:51;15.32;;;4.85;;
20185;SDS011;10252;48.792;8.582;2023-10-08T15:38:54;20.65;;;5.03;;
20185;SDS011;10252;48.792;8.582;2023-10-08T15:43:55;12.60;;;4.85;;
20185;SDS011;10252;48.792;8.582;2023-10-08T15:48:59;15.57;;;4.63;;
20185;SDS011;10252;48.792;8.582;2023-10-08T15:54:02;13.80;;;4.25;;
20185;SDS011;10252;48.792;8.582;2023-10-08T15:59:04;23.50;;;5.53;;
20185;SDS011;10252;48.792;8.582;2023-10-08T16:04:06;12.93;;;4.78;;
20185;SDS011;10252;48.792;8.582;2023-10-08T16:09:07;18.33;;;5.53;;
20185;SDS011;10252;48.792;8.582;2023-10-08T16:14:08;12.75;;;4.93;;
20185;SDS011;10252;48.792;8.582;2023-10-08T16:19:09;13.25;;;4.68;;
20185;SDS011;10252;48.792;8.582;2023-10-08T16:24:11;21.65;;;5.57;;
20185;SDS011;10252;48.792;8.582;2023-10-08T16:29:16;16.73;;;4.75;;
20185;SDS011;10252;48.792;8.582;2023-10-08T16:34:18;19.52;;;4.35;;
20185;SDS011;10252;48.792;8.582;2023-10-08T16:39:20;15.50;;;4.47;;
20185;SDS011;10252;48.792;8.582;2023-10-08T16:44:24;17.20;;;4.88;;
20185;SDS011;10252;48.792;8.582;2023-10-08T16:49:29;11.98;;;4.13;;
20185;SDS011;10252;48.792;8.582;2023-10-08T16:54:31;12.38;;;4.50;;
20185;SDS011;10252;48.792;8.582;2023-10-08T16:59:32;12.55;;;4.32;;
20185;SDS011;10252;48.792;8.582;2023-10-08T17:04:37;12.43;;;4.70;;
20185;SDS011;10252;48.792;8.582;2023-10-08T17:09:39;10.05;;;3.80;;
20185;SDS011;10252;48.792;8.582;2023-10-08T17:14:41;15.25;;;4.28;;
20185;SDS011;10252;48.792;8.582;2023-10-08T17:19:42;13.48;;;4.70;;
20185;SDS011;10252;48.792;8.582;2023-10-08T17:24:43;12.93;;;4.40;;
20185;SDS011;10252;48.792;8.582;2023-10-08T17:29:45;21.45;;;4.93;;
20185;SDS011;10252;48.792;8.582;2023-10-08T17:34:46;17.60;;;4.72;;
20185;SDS011;10252;48.792;8.582;2023-10-08T17:39:48;15.05;;;5.18;;
20185;SDS011;10252;48.792;8.582;2023-10-08T17:44:50;13.07;;;4.97;;
20185;SDS011;10252;48.792;8.582;2023-10-08T17:49:51;21.13;;;4.90;;
20185;SDS011;10252;48.792;8.582;2023-10-08T17:54:53;12.98;;;5.00;;
20185;SDS011;10252;48.792;8.582;2023-10-08T17:59:56;19.13;;;5.55;;
20185;SDS011;10252;48.792;8.582;2023-10-08T18:05:00;16.95;;;5.22;;
20185;SDS011;10252;48.792;8.582;2023-10-08T18:10:05;15.00;;;4.75;;
20185;SDS011;10252;48.792;8.582;2023-10-08T18:15:07;19.73;;;5.43;;
20185;SDS011;10252;48.792;8.582;2023-10-08T18:20:16;17.38;;;5.00;;
20185;SDS011;10252;48.792;8.582;2023-10-08T18:25:21;19.00;;;5.32;;
20185;SDS011;10252;48.792;8.582;2023-10-08T18:30:23;15.77;;;6.07;;
20185;SDS011;10252;48.792;8.582;2023-10-08T18:35:27;15.32;;;5.30;;
20185;SDS011;10252;48.792;8.582;2023-10-08T18:40:34;16.60;;;4.97;;
20185;SDS011;10252;48.792;8.582;2023-10-08T18:45:40;17.60;;;4.90;;
20185;SDS011;10252;48.792;8.582;2023-10-08T18:50:42;17.98;;;4.75;;
20185;SDS011;10252;48.792;8.582;2023-10-08T18:55:45;13.18;;;4.82;;
20185;SDS011;10252;48.792;8.582;2023-10-08T19:00:46;16.70;;;5.57;;
20185;SDS011;10252;48.792;8.582;2023-10-08T19:05:48;21.20;;;5.75;;
20185;SDS011;10252;48.792;8.582;2023-10-08T19:10:50;20.75;;;5.72;;
20185;SDS011;10252;48.792;8.582;2023-10-08T19:15:52;17.80;;;4.55;;
20185;SDS011;10252;48.792;8.582;2023-10-08T19:20:53;13.75;;;5.53;;
20185;SDS011;10252;48.792;8.582;2023-10-08T19:25:56;22.08;;;5.78;;
20185;SDS011;10252;48.792;8.582;2023-10-08T19:30:58;20.42;;;6.20;;
20185;SDS011;10252;48.792;8.582;2023-10-08T19:36:03;17.23;;;5.95;;
20185;SDS011;10252;48.792;8.582;2023-10-08T19:41:11;15.68;;;5.88;;
20185;SDS011;10252;48.792;8.582;2023-10-08T19:46:13;20.23;;;7.00;;
20185;SDS011;10252;48.792;8.582;2023-10-08T19:51:15;17.08;;;6.43;;
20185;SDS011;10252;48.792;8.582;2023-10-08T19:56:17;23.42;;;6.38;;
20185;SDS011;10252;48.792;8.582;2023-10-08T20:01:19;22.00;;;6.53;;
20185;SDS011;10252;48.792;8.582;2023-10-08T20:06:21;18.48;;;5.82;;
20185;SDS011;10252;48.792;8.582;2023-10-08T20:11:23;17.10;;;6.15;;
20185;SDS011;10252;48.792;8.582;2023-10-08T20:16:25;24.45;;;5.85;;
20185;SDS011;10252;48.792;8.582;2023-10-08T20:21:27;19.77;;;5.38;;
20185;SDS011;10252;48.792;8.582;2023-10-08T20:26:29;21.88;;;6.25;;
20185;SDS011;10252;48.792;8.582;2023-10-08T20:31:30;17.85;;;5.22;;
20185;SDS011;10252;48.792;8.582;2023-10-08T20:36:32;14.70;;;5.90;;
20185;SDS011;10252;48.792;8.582;2023-10-08T20:41:33;20.67;;;5.45;;
20185;SDS011;10252;48.792;8.582;2023-10-08T20:46:37;20.95;;;6.20;;
20185;SDS011;10252;48.792;8.582;2023-10-08T20:51:40;20.27;;;5.72;;
20185;SDS011;10252;48.792;8.582;2023-10-08T20:56:43;22.30;;;5.65;;
20185;SDS011;10252;48.792;8.582;2023-10-08T21:01:45;22.30;;;5.53;;
20185;SDS011;10252;48.792;8.582;2023-10-08T21:06:48;17.83;;;5.25;;
20185;SDS011;10252;48.792;8.582;2023-10-08T21:11:49;17.02;;;5.82;;
20185;SDS011;10252;48.792;8.582;2023-10-08T21:16:51;20.60;;;5.75;;
20185;SDS011;10252;48.792;8.582;2023-10-08T21:21:55;20.42;;;5.53;;
20185;SDS011;10252;48.792;8.582;2023-10-08T21:26:58;22.50;;;6.25;;
20185;SDS011;10252;48.792;8.582;2023-10-08T21:31:59;20.02;;;5.45;;
20185;SDS011;10252;48.792;8.582;2023-10-08T21:37:02;32.13;;;6.00;;
20185;SDS011;10252;48.792;8.582;2023-10-08T21:42:04;18.55;;;5.40;;
20185;SDS011;10252;48.792;8.582;2023-10-08T21:47:06;14.45;;;4.38;;
20185;SDS011;10252;48.792;8.582;2023-10-08T21:52:08;23.88;;;6.50;;
20185;SDS011;10252;48.792;8.582;2023-10-08T21:57:09;17.88;;;5.35;;
20185;SDS011;10252;48.792;8.582;2023-10-08T22:02:11;19.67;;;6.18;;
20185;SDS011;10252;48.792;8.582;2023-10-08T22:07:13;22.50;;;5.28;;
20185;SDS011;10252;48.792;8.582;2023-10-08T22:12:14;21.63;;;6.32;;
20185;SDS011;10252;48.792;8.582;2023-10-08T22:17:17;20.48;;;5.90;;
20185;SDS011;10252;48.792;8.582;2023-10-08T22:22:27;17.83;;;5.05;;
20185;SDS011;10252;48.792;8.582;2023-10-08T22:27:29;25.83;;;5.53;;
20185;SDS011;10252;48.792;8.582;2023-10-08T22:32:33;17.20;;;5.68;;
20185;SDS011;10252;48.792;8.582;2023-10-08T22:37:37;22.08;;;5.57;;
20185;SDS011;10252;48.792;8.582;2023-10-08T22:42:56;20.48;;;5.38;;
20185;SDS011;10252;48.792;8.582;2023-10-08T22:47:58;20.45;;;4.88;;
20185;SDS011;10252;48.792;8.582;2023-10-08T22:53:06;14.75;;;4.55;;
20185;SDS011;10252;48.792;8.582;2023-10-08T22:58:08;17.13;;;5.45;;
20185;SDS011;10252;48.792;8.582;2023-10-08T23:03:10;17.98;;;5.43;;
20185;SDS011;10252;48.792;8.582;2023-10-08T23:08:11;17.85;;;4.55;;
20185;SDS011;10252;48.792;8.582;2023-10-08T23:13:13;21.00;;;6.13;;
20185;SDS011;10252;48.792;8.582;2023-10-08T23:18:15;16.55;;;5.57;;
20185;SDS011;10252;48.792;8.582;2023-10-08T23:23:23;17.35;;;4.90;;
20185;SDS011;10252;48.792;8.582;2023-10-08T23:28:26;28.75;;;6.32;;
20185;SDS011;10252;48.792;8.582;2023-10-08T23:33:28;19.77;;;5.07;;
20185;SDS011;10252;48.792;8.582;2023-10-08T23:38:35;20.33;;;5.30;;
20185;SDS011;10252;48.792;8.582;2023-10-08T23:43:38;21.38;;;5.38;;
20185;SDS011;10252;48.792;8.582;2023-10-08T23:48:41;18.25;;;5.13;;
20185;SDS011;10252;48.792;8.582;2023-10-08T23:53:56;23.70;;;6.05;;
20185;SDS011;10252;48.792;8.582;2023-10-08T23:59:02;20.20;;;5.97;;
